Flight Track Log - Related Links

Times and Time Zones

All times are in EDT time to prevent confusion due to time zone crossing. See the FIN666 flight status page for this flight to view local times or setup timezone preferences in your user account.

Time Position Orientation Groundspeed Altitude Reporting Facility
EDT Latitude Longitude Course Direction KTS MPH feet Rate Location/Type
Mon 07:32:00 AM 55.9905 13.4309 49° Northeast  Level Estimated
Mon 07:33:00 AM 56.0644 13.5877 50° Northeast  Level Estimated
Mon 07:34:00 AM 56.1426 13.7546 50° Northeast  Level Estimated
Mon 07:35:00 AM 56.2206 13.9222 50° Northeast  Level Estimated
Mon 07:36:00 AM 56.2983 14.0906 50° Northeast  Level Estimated
Mon 07:37:00 AM 56.3758 14.2595 50° Northeast  Level Estimated
Mon 07:38:00 AM 56.4531 14.4292 50° Northeast  Level Estimated
Mon 07:39:00 AM 56.5301 14.5996 51° Northeast  Level Estimated
Mon 07:40:00 AM 56.6069 14.7706 51° Northeast  Level Estimated
Mon 07:41:00 AM 56.6835 14.9424 51° Northeast  Level Estimated
Mon 07:42:00 AM 56.7598 15.1148 51° Northeast  Level Estimated
Mon 07:43:00 AM 56.8359 15.2880 51° Northeast  Level Estimated
Mon 07:44:00 AM 56.9118 15.4618 51° Northeast  Level Estimated
Mon 07:45:00 AM 56.9874 15.6364 51° Northeast  Level Estimated
Mon 07:46:00 AM 57.0628 15.8117 52° Northeast  Level Estimated
Mon 07:47:00 AM 57.1379 15.9877 52° Northeast  Level Estimated
Mon 07:48:00 AM 57.2127 16.1644 52° Northeast  Level Estimated
Mon 07:49:00 AM 57.2874 16.3418 52° Northeast  Level Estimated
Mon 07:50:00 AM 57.3618 16.5199 52° Northeast  Level Estimated
Mon 07:51:00 AM 57.4359 16.6988 52° Northeast  Level Estimated
Mon 07:52:00 AM 57.5097 16.8783 53° Northeast  Level Estimated
Mon 07:53:00 AM 57.5834 17.0587 53° Northeast  Level Estimated
Mon 07:54:00 AM 57.6567 17.2397 53° Northeast  Level Estimated
Mon 07:55:00 AM 57.7298 17.4215 53° Northeast  Level Estimated
Mon 07:56:00 AM 57.8026 17.6040 53° Northeast  Level Estimated
Mon 07:57:00 AM 57.8752 17.7872 53° Northeast  Level Estimated
Mon 07:58:00 AM 57.9475 17.9712 53° Northeast  Level Estimated
Mon 07:59:00 AM 58.0196 18.1559 54° Northeast  Level Estimated
Mon 08:00:00 AM 58.0913 18.3414 54° Northeast  Level Estimated
Mon 08:01:00 AM 58.1628 18.5276 54° Northeast  Level Estimated
Mon 08:02:00 AM 58.2340 18.7146 54° Northeast  Level Estimated
Mon 08:03:00 AM 58.3050 18.9023 54° Northeast  Level Estimated
Mon 08:04:00 AM 58.3757 19.0908 54° Northeast  Level Estimated
Mon 08:05:00 AM 58.4461 19.2800 55° Northeast  Level Estimated
Mon 08:06:00 AM 58.5162 19.4700 55° Northeast  Level Estimated
Mon 08:07:00 AM 58.5860 19.6607 55° Northeast  Level Estimated
Mon 08:08:00 AM 58.6556 19.8522 55° Northeast  Level Estimated
Mon 08:09:00 AM 58.7248 20.0445 55° Northeast  Level Estimated
Mon 08:10:00 AM 58.7938 20.2375 55° Northeast  Level Estimated
Mon 08:11:00 AM 58.8625 20.4313 56° Northeast  Level Estimated
Mon 08:12:00 AM 58.9309 20.6259 56° Northeast  Level Estimated
Mon 08:13:00 AM 58.9990 20.8212 56° Northeast  Level Estimated
Mon 08:14:00 AM 59.0668 21.0173 56° Northeast  Level Estimated
Mon 08:15:00 AM 59.1344 21.2142 56° Northeast  Level Estimated
Mon 08:16:00 AM 59.2016 21.4119 56° Northeast  Level Estimated
Mon 08:17:00 AM 59.2685 21.6103 57° Northeast  Level Estimated
Mon 08:18:00 AM 59.3351 21.8095 57° Northeast  Level Estimated
Mon 08:19:00 AM 59.4014 22.0095 57° Northeast  Level Estimated
Mon 08:20:00 AM 59.4674 22.2103 57° Northeast  Level Estimated
Mon 08:21:00 AM 59.5331 22.4119 57° Northeast  Level Estimated
Mon 08:22:00 AM 59.5985 22.6142 57° Northeast  Level Estimated
Mon 08:23:00 AM 59.6635 22.8173 58° Northeast  Level Estimated
Mon 08:24:00 AM 59.7283 23.0213 58° Northeast  Level Estimated
Mon 08:25:00 AM 59.7927 23.2260 58° Northeast  Level Estimated
Mon 08:26:00 AM 59.8568 23.4315 58° Northeast  Level Estimated
Mon 08:27:00 AM 59.9206 23.6378 58° Northeast  Level Estimated
Mon 08:28:00 AM 59.9841 23.8449 58° Northeast  Level Estimated
Mon 08:29:00 AM 60.0472 24.0528 59° Northeast  Level Estimated
Mon 08:30:00 AM 60.1101 24.2614 59° Northeast  Level Estimated
Mon 08:31:00 AM 60.1726 24.4709 59° Northeast  Level Estimated
Mon 08:32:00 AM 60.2347 24.6812 59° Northeast  Level Estimated
Mon 08:33:00 AM 60.2965 24.8922 59° Northeast  Level Estimated
Mon 08:34:00 AM 60.3172 24.9633 60° Northeast  Level Estimated
Mon 08:35:00 AM 60.3172 24.9633 North  Level Estimated
Mon 08:36:00 AM 60.3172 24.9633 North  Level Estimated
Mon 08:37:00 AM 60.3172 24.9633 North  Level Estimated
Mon 08:38:00 AM 60.3172 24.9633 North  Level Estimated
Mon 08:39:00 AM 60.3172 24.9633 North  Level Estimated
Mon 08:40:00 AM 60.3172 24.9633 North  Level Estimated
Mon 08:41:00 AM 60.3172 24.9633 North  Level Estimated
Mon 08:42:00 AM 60.3172 24.9633 North  Level Estimated
Mon 08:43:00 AM 60.3172 24.9633 North  Level Estimated
Mon 08:44:00 AM 60.3172 24.9633 North  Level Estimated
Mon 08:45:00 AM 60.3172 24.9633 North  Level Estimated
Mon 08:46:00 AM 60.3172 24.9633 North  Level Estimated
Mon 08:47:00 AM 60.3172 24.9633 North  Level Estimated
Mon 08:48:00 AM 60.3172 24.9633 North  Level Estimated
Mon 08:49:00 AM 60.3172 24.9633 North  Level Estimated
Mon 08:50:00 AM 60.3172 24.9633 North  Level Estimated

Login

Don't have an account? Register now (free) for customized features, flight alerts, and more!